createdAt,value
2022-12-15T00:04:34.196Z,24.42
2022-12-15T00:09:53.961Z,23.88
2022-12-15T00:15:14.062Z,21.85
2022-12-15T00:20:34.518Z,20.92
2022-12-15T00:25:54.283Z,25.23
2022-12-15T00:31:17.075Z,26.67
2022-12-15T00:36:36.920Z,24.23
2022-12-15T00:41:38.350Z,29.15
2022-12-15T00:46:54.692Z,26.15
2022-12-15T00:52:14.513Z,25.27
2022-12-15T00:57:34.301Z,22.98
2022-12-15T01:02:54.389Z,27.17
2022-12-15T01:08:14.530Z,25.13
2022-12-15T01:13:34.766Z,23.25
2022-12-15T01:18:54.521Z,30.20
2022-12-15T01:23:55.892Z,28.15
2022-12-15T01:28:57.278Z,30.27
2022-12-15T01:33:58.631Z,24.25
2022-12-15T01:39:01.046Z,27.30
2022-12-15T01:44:20.139Z,23.45
2022-12-15T01:49:25.532Z,24.75
2022-12-15T01:54:38.702Z,22.92
2022-12-15T01:59:48.771Z,26.90
2022-12-15T02:04:52.876Z,21.58
2022-12-15T02:09:58.107Z,24.02
2022-12-15T02:15:22.593Z,26.55
2022-12-15T02:20:42.889Z,24.42
2022-12-15T02:25:59.503Z,24.98
2022-12-15T02:31:27.730Z,25.58
2022-12-15T02:41:39.583Z,23.33
2022-12-15T02:46:56.592Z,30.60
2022-12-15T02:52:20.276Z,25.27
2022-12-15T02:57:35.232Z,23.38
2022-12-15T03:02:41.699Z,25.35
2022-12-15T03:07:43.205Z,26.20
2022-12-15T03:12:45.114Z,28.35
2022-12-15T03:17:46.584Z,23.70
2022-12-15T03:22:47.962Z,22.17
2022-12-15T03:27:49.406Z,21.85
2022-12-15T03:32:50.783Z,23.02
2022-12-15T03:37:53.228Z,30.52
2022-12-15T03:42:54.637Z,27.98
2022-12-15T03:47:56.969Z,22.55
2022-12-15T03:53:02.434Z,28.73
2022-12-15T03:58:03.817Z,26.20
2022-12-15T04:03:05.424Z,22.95
2022-12-15T04:08:06.984Z,20.55
2022-12-15T04:13:10.793Z,23.08
2022-12-15T04:18:12.165Z,24.27
2022-12-15T04:23:14.136Z,27.52
2022-12-15T04:28:33.869Z,25.13
2022-12-15T04:33:55.016Z,29.20
2022-12-15T04:39:16.133Z,25.15
2022-12-15T04:44:36.675Z,27.42
2022-12-15T04:49:56.553Z,21.15
2022-12-15T04:55:16.261Z,22.30
2022-12-15T05:00:36.154Z,22.65
2022-12-15T05:05:56.151Z,26.83
2022-12-15T05:11:18.737Z,26.50
2022-12-15T05:16:38.533Z,26.13
2022-12-15T05:21:58.261Z,25.75
2022-12-15T05:27:18.356Z,27.10
2022-12-15T05:32:19.715Z,30.20
2022-12-15T05:37:21.138Z,25.33
2022-12-15T05:42:22.489Z,26.17
2022-12-15T05:47:23.846Z,24.40
2022-12-15T05:52:25.299Z,29.25
2022-12-15T05:57:26.658Z,28.45
2022-12-15T06:02:31.098Z,33.05
2022-12-15T06:07:33.841Z,27.70
2022-12-15T06:12:35.203Z,28.95
2022-12-15T06:17:36.604Z,28.13
2022-12-15T06:22:38.004Z,24.05
2022-12-15T06:27:39.419Z,22.40
2022-12-15T06:32:40.800Z,29.98
2022-12-15T06:37:42.135Z,24.08
2022-12-15T06:42:43.508Z,29.60
2022-12-15T06:47:44.895Z,31.70
2022-12-15T06:52:46.340Z,23.63
2022-12-15T06:57:48.867Z,30.05
2022-12-15T07:02:50.882Z,32.40
2022-12-15T07:07:52.491Z,32.58
2022-12-15T07:12:56.646Z,34.35
2022-12-15T07:17:58.042Z,31.73
2022-12-15T07:23:00.618Z,34.47
2022-12-15T07:28:02.189Z,27.35
2022-12-15T07:33:04.730Z,28.67
2022-12-15T07:38:07.114Z,34.10
2022-12-15T07:43:08.476Z,33.00
2022-12-15T07:48:09.919Z,32.83
2022-12-15T07:53:11.290Z,25.70
2022-12-15T07:58:12.723Z,37.30
2022-12-15T08:03:14.196Z,30.27
2022-12-15T08:08:15.806Z,33.80
2022-12-15T08:13:52.881Z,34.70
2022-12-15T08:18:39.493Z,33.25
2022-12-15T08:23:41.256Z,30.30
2022-12-15T08:28:43.594Z,31.67
2022-12-15T08:33:46.383Z,28.95
2022-12-15T08:38:48.050Z,32.65
2022-12-15T08:43:50.965Z,40.00
2022-12-15T08:48:55.476Z,36.95
2022-12-15T08:54:00.375Z,38.45
2022-12-15T08:59:02.846Z,38.97
2022-12-15T09:04:04.318Z,34.95
2022-12-15T09:09:08.074Z,35.78
2022-12-15T09:14:09.443Z,32.95
2022-12-15T09:19:11.062Z,32.88
2022-12-15T09:24:22.137Z,34.92
2022-12-15T09:29:27.629Z,38.33
2022-12-15T09:34:29.075Z,39.67
2022-12-15T09:39:30.670Z,39.63
2022-12-15T09:44:32.944Z,40.13
2022-12-15T09:49:54.960Z,41.10
2022-12-15T09:54:58.233Z,37.90
2022-12-15T10:00:09.991Z,42.03
2022-12-15T10:05:20.640Z,35.17
2022-12-15T10:10:30.488Z,36.47
2022-12-15T10:15:45.462Z,38.15
2022-12-15T10:20:55.358Z,36.38
2022-12-15T10:26:16.274Z,39.63
2022-12-15T10:31:30.405Z,29.17
2022-12-15T10:36:31.845Z,34.17
2022-12-15T10:41:33.639Z,35.05
2022-12-15T10:46:35.092Z,35.35
2022-12-15T10:51:54.209Z,34.63
2022-12-15T10:56:57.112Z,39.78
2022-12-15T11:07:47.533Z,35.22
2022-12-15T11:13:17.389Z,38.65
2022-12-15T11:18:51.431Z,36.95
2022-12-15T11:24:16.454Z,37.28
2022-12-15T11:29:39.152Z,36.72
2022-12-15T11:34:45.961Z,39.55
2022-12-15T11:40:19.493Z,28.77
2022-12-15T11:45:31.442Z,37.88
2022-12-15T11:50:59.299Z,31.88
2022-12-15T11:56:28.386Z,45.00
2022-12-15T12:02:08.299Z,32.50
2022-12-15T12:07:42.006Z,30.60
2022-12-15T12:13:13.978Z,36.53
2022-12-15T12:18:46.551Z,33.80
2022-12-15T12:23:58.509Z,34.70
2022-12-15T12:29:13.051Z,36.15
2022-12-15T12:34:23.473Z,33.92
2022-12-15T12:39:25.859Z,37.35
2022-12-15T12:44:37.670Z,43.20
2022-12-15T12:49:56.376Z,33.92
2022-12-15T12:55:05.072Z,40.55
2022-12-15T13:00:20.318Z,47.20
2022-12-15T13:05:29.227Z,35.60
2022-12-15T13:10:38.742Z,39.92
2022-12-15T13:15:45.730Z,40.63
2022-12-15T13:20:57.162Z,33.85
2022-12-15T13:25:59.010Z,41.75
2022-12-15T13:31:24.381Z,35.08
2022-12-15T13:36:38.318Z,43.15
2022-12-15T13:42:15.138Z,37.22
2022-12-15T13:47:23.655Z,34.20
2022-12-15T13:53:16.710Z,36.40
2022-12-15T13:58:02.751Z,37.42
2022-12-15T14:03:06.917Z,40.60
2022-12-15T14:08:15.521Z,32.97
2022-12-15T14:13:36.998Z,36.72
2022-12-15T14:18:39.060Z,38.85
2022-12-15T14:24:10.902Z,41.83
2022-12-15T14:29:06.241Z,39.65
2022-12-15T14:34:29.825Z,40.38
2022-12-15T14:39:43.095Z,35.50
2022-12-15T14:44:49.738Z,39.70
2022-12-15T14:55:33.266Z,41.75
2022-12-15T15:00:48.519Z,36.22
2022-12-15T15:05:55.124Z,35.97
2022-12-15T15:11:00.827Z,34.50
2022-12-15T15:16:07.096Z,36.72
2022-12-15T15:21:17.111Z,36.90
2022-12-15T15:26:18.746Z,32.05
2022-12-15T15:31:40.917Z,38.33
2022-12-15T15:36:43.305Z,40.83
2022-12-15T15:41:44.674Z,43.78
2022-12-15T15:46:49.300Z,42.25
2022-12-15T15:51:50.683Z,46.60
2022-12-15T15:56:52.051Z,47.00
2022-12-15T16:01:55.745Z,41.13
2022-12-15T16:06:57.253Z,41.53
2022-12-15T16:11:59.395Z,45.85
2022-12-15T16:17:00.733Z,41.50
2022-12-15T16:22:02.462Z,36.67
2022-12-15T16:27:03.926Z,43.78
2022-12-15T16:32:06.102Z,39.78
2022-12-15T16:37:23.780Z,42.10
2022-12-15T16:42:25.194Z,39.03
2022-12-15T16:47:27.119Z,37.10
2022-12-15T16:52:28.506Z,43.00
2022-12-15T16:57:29.950Z,41.55
2022-12-15T17:02:31.596Z,40.38
2022-12-15T17:07:33.220Z,39.58
2022-12-15T17:12:34.748Z,41.30
2022-12-15T17:17:36.092Z,38.80
2022-12-15T17:22:37.756Z,34.13
2022-12-15T17:27:39.132Z,45.35
2022-12-15T17:32:40.534Z,45.55
2022-12-15T17:37:43.420Z,44.47
2022-12-15T17:42:46.157Z,40.40
2022-12-15T17:47:48.161Z,45.60
2022-12-15T17:52:49.798Z,42.55
2022-12-15T17:57:54.567Z,41.53
2022-12-15T18:02:57.446Z,38.08
2022-12-15T18:08:02.607Z,32.80
2022-12-15T18:13:15.015Z,38.35
2022-12-15T18:18:18.506Z,45.50
2022-12-15T18:23:22.226Z,38.53
2022-12-15T18:28:28.945Z,35.47
2022-12-15T18:33:30.892Z,26.87
2022-12-15T18:38:32.570Z,32.78
2022-12-15T18:43:35.196Z,44.15
2022-12-15T18:48:37.001Z,37.63
2022-12-15T18:53:41.005Z,38.22
2022-12-15T18:58:42.448Z,43.92
2022-12-15T19:03:43.841Z,34.08
2022-12-15T19:08:45.426Z,33.97
2022-12-15T19:13:46.830Z,26.88
2022-12-15T19:19:06.865Z,32.38
2022-12-15T19:24:14.922Z,32.45
2022-12-15T19:29:21.878Z,33.53
2022-12-15T19:34:26.217Z,32.00
2022-12-15T19:39:28.667Z,30.13
2022-12-15T19:44:30.735Z,27.85
2022-12-15T19:49:32.103Z,29.80
2022-12-15T19:54:33.459Z,28.25
2022-12-15T19:59:34.781Z,28.10
2022-12-15T20:04:36.212Z,33.65
2022-12-15T20:09:38.006Z,26.00
2022-12-15T20:14:39.518Z,30.27
2022-12-15T20:19:41.600Z,26.98
2022-12-15T20:24:44.436Z,37.38
2022-12-15T20:29:45.898Z,22.80
2022-12-15T20:34:47.582Z,23.73
2022-12-15T20:39:55.561Z,22.20
2022-12-15T20:44:58.669Z,18.55
2022-12-15T20:50:00.093Z,23.13
2022-12-15T20:55:02.926Z,21.58
2022-12-15T21:00:05.202Z,18.92
2022-12-15T21:05:07.825Z,17.58
2022-12-15T21:10:12.357Z,18.58
2022-12-15T21:15:22.126Z,21.75
2022-12-15T21:20:23.530Z,19.48
2022-12-15T21:25:26.669Z,23.63
2022-12-15T21:30:28.217Z,22.00
2022-12-15T21:35:31.894Z,17.48
2022-12-15T21:40:33.620Z,16.33
2022-12-15T21:45:34.979Z,17.60
2022-12-15T21:50:38.322Z,21.05
2022-12-15T21:55:41.032Z,19.50
2022-12-15T22:00:45.686Z,18.67
2022-12-15T22:05:47.318Z,21.10
2022-12-15T22:10:51.136Z,18.92
2022-12-15T22:15:54.668Z,15.88
2022-12-15T22:20:56.187Z,19.67
2022-12-15T22:25:57.684Z,20.52
2022-12-15T22:31:02.572Z,12.75
2022-12-15T22:36:04.174Z,16.38
2022-12-15T22:41:06.842Z,17.13
2022-12-15T22:46:12.451Z,20.65
2022-12-15T22:51:16.205Z,17.25
2022-12-15T22:56:39.269Z,16.65
2022-12-15T23:01:40.718Z,14.10
2022-12-15T23:06:42.231Z,14.13
2022-12-15T23:11:43.963Z,11.93
2022-12-15T23:16:46.288Z,12.77
2022-12-15T23:21:47.704Z,15.35
2022-12-15T23:26:49.112Z,17.13
2022-12-15T23:31:50.446Z,14.10
2022-12-15T23:36:52.065Z,14.85
2022-12-15T23:41:53.422Z,15.15
2022-12-15T23:46:57.265Z,13.82
2022-12-15T23:51:58.645Z,12.15
2022-12-15T23:57:00.017Z,10.52
